Amargosa Valley, Nevada
Current Conditions -  °F | °C
As of 11:52 PM on Tuesday 25 Nov 2014 (Local Time) from KDRA Reporting Station
Clear Clear  
Wind Chill: 38°   Ceiling: Unl
Heat Index: 38°   Visibility: 10mi
Dew Point:   Wind: 0mph
Humidity: 27%   Direction: NA
Pressure: 30.4"   Gusts: NA
Location:  36.64°N, 116.4°W
Report Text: KDRA 260752Z AUTO 00000KT 10SM CLR 03/M14 A3040 RMK AO2 SLP282 T00331144 401671022
Loading
Personal Weather Stations






























Interactive Weather Map New forecast layout! Learn more

10-Day Weather Forecast

Advertisements
Track Severe Weather on mobile